createdAt,value
2023-03-15T00:00:44.866Z,94299.00
2023-03-15T00:01:44.914Z,94301.00
2023-03-15T00:02:44.986Z,94297.00
2023-03-15T00:03:45.065Z,94293.00
2023-03-15T00:04:45.047Z,94293.00
2023-03-15T00:05:45.105Z,94295.00
2023-03-15T00:06:45.153Z,94301.00
2023-03-15T00:07:45.168Z,94301.00
2023-03-15T00:08:45.220Z,94304.00
2023-03-15T00:09:45.231Z,94308.00
2023-03-15T00:10:45.277Z,94310.00
2023-03-15T00:11:45.322Z,94316.00
2023-03-15T00:12:45.351Z,94318.00
2023-03-15T00:13:45.428Z,94322.00
2023-03-15T00:14:45.494Z,94320.00
2023-03-15T00:15:45.605Z,94318.00
2023-03-15T00:16:45.724Z,94318.00
2023-03-15T00:17:45.567Z,94316.00
2023-03-15T00:18:45.690Z,94310.00
2023-03-15T00:19:45.650Z,94304.00
2023-03-15T00:20:45.631Z,94297.00
2023-03-15T00:21:45.709Z,94297.00
2023-03-15T00:22:45.745Z,94299.00
2023-03-15T00:23:45.846Z,94299.00
2023-03-15T00:24:45.864Z,94297.00
2023-03-15T00:25:45.864Z,94295.00
2023-03-15T00:26:45.905Z,94293.00
2023-03-15T00:27:45.959Z,94287.00
2023-03-15T00:28:45.988Z,94285.00
2023-03-15T00:29:46.021Z,94283.00
2023-03-15T00:30:46.041Z,94283.00
2023-03-15T00:31:46.056Z,94281.00
2023-03-15T00:32:46.138Z,94281.00
2023-03-15T00:33:46.133Z,94281.00
2023-03-15T00:34:46.141Z,94285.00
2023-03-15T00:35:46.163Z,94289.00
2023-03-15T00:36:46.189Z,94291.00
2023-03-15T00:37:46.241Z,94291.00
2023-03-15T00:39:46.301Z,94291.00
2023-03-15T00:40:46.354Z,94291.00
2023-03-15T00:41:46.395Z,94295.00
2023-03-15T00:42:46.425Z,94297.00
2023-03-15T00:43:46.533Z,94291.00
2023-03-15T00:44:46.498Z,94289.00
2023-03-15T00:45:46.541Z,94285.00
2023-03-15T00:46:46.620Z,94285.00
2023-03-15T00:47:46.577Z,94281.00
2023-03-15T00:48:46.645Z,94287.00
2023-03-15T00:49:46.695Z,94279.00
2023-03-15T00:50:46.695Z,94281.00
2023-03-15T00:51:46.735Z,94279.00
2023-03-15T00:52:46.752Z,94283.00
2023-03-15T00:53:46.920Z,94279.00
2023-03-15T00:54:46.822Z,94279.00
2023-03-15T00:55:46.976Z,94275.00
2023-03-15T00:56:46.919Z,94271.00
2023-03-15T00:57:46.972Z,94273.00
2023-03-15T00:58:47.034Z,94269.00
2023-03-15T00:59:47.037Z,94265.00
2023-03-15T01:00:47.065Z,94265.00
2023-03-15T01:01:47.179Z,94261.00
2023-03-15T01:02:47.167Z,94261.00
2023-03-15T01:03:47.171Z,94261.00
2023-03-15T01:04:47.190Z,94261.00
2023-03-15T01:05:47.225Z,94263.00
2023-03-15T01:06:47.290Z,94267.00
2023-03-15T01:07:47.338Z,94267.00
2023-03-15T01:08:47.360Z,94271.00
2023-03-15T01:09:48.560Z,94271.00
2023-03-15T01:10:47.457Z,94273.00
2023-03-15T01:11:47.509Z,94267.00
2023-03-15T01:12:47.527Z,94267.00
2023-03-15T01:13:47.542Z,94265.00
2023-03-15T01:14:47.574Z,94263.00
2023-03-15T01:15:47.650Z,94267.00
2023-03-15T01:16:47.667Z,94265.00
2023-03-15T01:17:47.774Z,94265.00
2023-03-15T01:18:47.778Z,94263.00
2023-03-15T01:19:47.818Z,94263.00
2023-03-15T01:20:47.862Z,94259.00
2023-03-15T01:21:47.936Z,94261.00
2023-03-15T01:22:47.968Z,94259.00
2023-03-15T01:23:47.989Z,94259.00
2023-03-15T01:24:48.063Z,94261.00
2023-03-15T01:25:48.100Z,94265.00
2023-03-15T01:26:48.159Z,94265.00
2023-03-15T01:27:48.172Z,94265.00
2023-03-15T01:28:48.210Z,94267.00
2023-03-15T01:29:48.250Z,94269.00
2023-03-15T01:30:49.791Z,94269.00
2023-03-15T01:31:48.360Z,94271.00
2023-03-15T01:32:48.434Z,94271.00
2023-03-15T01:33:48.372Z,94271.00
2023-03-15T01:34:48.463Z,94267.00
2023-03-15T01:36:48.496Z,94259.00
2023-03-15T01:37:48.586Z,94259.00
2023-03-15T01:38:48.622Z,94257.00
2023-03-15T01:39:48.658Z,94255.00
2023-03-15T01:40:48.699Z,94255.00
2023-03-15T01:41:48.744Z,94255.00
2023-03-15T01:42:48.812Z,94254.00
2023-03-15T01:43:48.823Z,94255.00
2023-03-15T01:44:48.901Z,94254.00
2023-03-15T01:45:48.921Z,94254.00
2023-03-15T01:46:48.991Z,94255.00
2023-03-15T01:47:48.989Z,94255.00
2023-03-15T01:48:49.057Z,94257.00
2023-03-15T01:49:49.057Z,94255.00
2023-03-15T01:50:49.090Z,94254.00
2023-03-15T01:51:49.129Z,94255.00
2023-03-15T01:52:49.188Z,94254.00
2023-03-15T01:53:49.242Z,94252.00
2023-03-15T01:54:49.313Z,94250.00
2023-03-15T01:55:49.318Z,94250.00
2023-03-15T01:56:49.363Z,94246.00
2023-03-15T01:57:49.359Z,94248.00
2023-03-15T01:58:49.428Z,94248.00
2023-03-15T01:59:49.456Z,94248.00
2023-03-15T02:00:49.513Z,94248.00
2023-03-15T02:01:49.557Z,94246.00
2023-03-15T02:02:49.599Z,94248.00
2023-03-15T02:03:49.604Z,94244.00
2023-03-15T02:04:49.650Z,94246.00
2023-03-15T02:05:49.684Z,94244.00
2023-03-15T02:06:49.724Z,94242.00
2023-03-15T02:07:49.768Z,94244.00
2023-03-15T02:08:49.811Z,94242.00
2023-03-15T02:09:49.816Z,94240.00
2023-03-15T02:10:49.878Z,94238.00
2023-03-15T02:20:09.064Z,94248.00
2023-03-15T02:23:09.028Z,94255.00
2023-03-15T02:24:09.026Z,94261.00
2023-03-15T02:25:09.053Z,94261.00
2023-03-15T02:26:09.034Z,94265.00
2023-03-15T02:27:08.996Z,94269.00
2023-03-15T02:28:09.029Z,94275.00
2023-03-15T02:29:08.988Z,94277.00
2023-03-15T02:30:08.972Z,94283.00
2023-03-15T02:31:08.985Z,94287.00
2023-03-15T02:32:09.000Z,94291.00
2023-03-15T02:33:08.977Z,94295.00
2023-03-15T02:34:08.963Z,94297.00
2023-03-15T02:35:08.949Z,94304.00
2023-03-15T02:36:08.980Z,94306.00
2023-03-15T02:41:08.893Z,94318.00
2023-03-15T02:42:08.895Z,94320.00
2023-03-15T02:43:08.853Z,94324.00
2023-03-15T02:44:08.849Z,94326.00
2023-03-15T02:45:08.828Z,94336.00
2023-03-15T02:46:08.911Z,94342.00
2023-03-15T02:47:08.806Z,94344.00
2023-03-15T02:48:08.823Z,94344.00
2023-03-15T02:50:08.778Z,94352.00
2023-03-15T02:51:08.756Z,94354.00
2023-03-15T02:52:08.749Z,94359.00
2023-03-15T02:53:08.756Z,94356.00
2023-03-15T02:54:08.754Z,94350.00
2023-03-15T02:55:08.760Z,94352.00
2023-03-15T02:56:08.721Z,94369.00
2023-03-15T02:57:08.698Z,94379.00
2023-03-15T02:58:08.701Z,94383.00
2023-03-15T02:59:08.699Z,94385.00
2023-03-15T03:00:08.705Z,94389.00
2023-03-15T03:02:08.710Z,94393.00
2023-03-15T03:03:08.672Z,94391.00
2023-03-15T03:04:08.684Z,94393.00
2023-03-15T03:05:08.616Z,94389.00
2023-03-15T03:06:08.628Z,94389.00
2023-03-15T03:07:08.617Z,94391.00
2023-03-15T03:08:08.611Z,94395.00
2023-03-15T03:09:08.585Z,94393.00
2023-03-15T03:10:08.593Z,94393.00
2023-03-15T03:11:08.557Z,94393.00
2023-03-15T03:12:08.569Z,94395.00
2023-03-15T03:13:08.578Z,94393.00
2023-03-15T03:14:08.536Z,94397.00
2023-03-15T03:15:08.541Z,94399.00
2023-03-15T03:16:08.553Z,94402.00
2023-03-15T03:17:08.520Z,94406.00
2023-03-15T03:18:08.541Z,94408.00
2023-03-15T03:19:08.513Z,94412.00
2023-03-15T03:20:08.546Z,94410.00
2023-03-15T03:21:08.521Z,94412.00
2023-03-15T03:22:08.494Z,94414.00
2023-03-15T03:23:08.464Z,94416.00
2023-03-15T03:24:08.468Z,94416.00
2023-03-15T03:25:08.498Z,94416.00
2023-03-15T03:26:08.455Z,94420.00
2023-03-15T03:27:08.468Z,94422.00
2023-03-15T03:28:08.491Z,94418.00
2023-03-15T03:29:08.433Z,94422.00
2023-03-15T03:30:08.448Z,94422.00
2023-03-15T03:31:08.501Z,94422.00
2023-03-15T03:32:08.459Z,94424.00
2023-03-15T03:33:08.437Z,94422.00
2023-03-15T03:34:08.413Z,94422.00
2023-03-15T03:35:08.436Z,94422.00
2023-03-15T03:36:08.454Z,94426.00
2023-03-15T03:37:08.404Z,94428.00
2023-03-15T03:38:08.386Z,94430.00
2023-03-15T03:39:08.390Z,94432.00
2023-03-15T03:40:08.375Z,94432.00
2023-03-15T03:41:08.351Z,94432.00
2023-03-15T03:42:08.351Z,94436.00
2023-03-15T03:43:08.320Z,94436.00
2023-03-15T03:44:08.339Z,94440.00
2023-03-15T03:45:08.358Z,94446.00
2023-03-15T03:46:08.383Z,94448.00
2023-03-15T03:47:08.351Z,94451.00
2023-03-15T03:48:08.330Z,94453.00
2023-03-15T03:49:08.319Z,94457.00
2023-03-15T03:50:08.314Z,94457.00
2023-03-15T03:52:08.375Z,94471.00
2023-03-15T03:53:08.310Z,94471.00
2023-03-15T03:58:08.277Z,94477.00
2023-03-15T03:59:08.293Z,94483.00
2023-03-15T04:00:08.267Z,94481.00
2023-03-15T04:01:08.239Z,94483.00
2023-03-15T04:02:08.387Z,94489.00
2023-03-15T04:03:08.213Z,94491.00
2023-03-15T04:06:08.275Z,94508.00
2023-03-15T04:07:08.247Z,94520.00
2023-03-15T04:08:08.259Z,94502.00
2023-03-15T04:09:08.293Z,94504.00
2023-03-15T04:10:08.295Z,94514.00
2023-03-15T04:11:08.305Z,94514.00
2023-03-15T04:12:08.345Z,94512.00
2023-03-15T04:13:08.329Z,94520.00
2023-03-15T04:14:08.318Z,94530.00
2023-03-15T04:15:08.350Z,94532.00
2023-03-15T04:16:08.463Z,94534.00
2023-03-15T04:17:08.327Z,94536.00
2023-03-15T04:18:08.364Z,94538.00
2023-03-15T04:19:08.354Z,94542.00
2023-03-15T04:20:08.381Z,94550.00
2023-03-15T04:21:08.374Z,94542.00
2023-03-15T04:22:08.344Z,94550.00
2023-03-15T04:23:08.348Z,94557.00
2023-03-15T04:24:08.460Z,94544.00
2023-03-15T04:25:08.388Z,94544.00
2023-03-15T04:26:08.384Z,94544.00
2023-03-15T04:27:08.383Z,94542.00
2023-03-15T04:28:08.363Z,94548.00
2023-03-15T04:29:08.407Z,94550.00
2023-03-15T04:30:08.448Z,94559.00
2023-03-15T04:31:08.427Z,94567.00
2023-03-15T04:32:08.423Z,94573.00
2023-03-15T04:33:08.454Z,94573.00
2023-03-15T04:34:08.477Z,94571.00
2023-03-15T04:35:08.523Z,94569.00
2023-03-15T04:36:08.568Z,94567.00
2023-03-15T04:37:08.558Z,94571.00
2023-03-15T04:38:08.603Z,94571.00
2023-03-15T04:39:08.599Z,94579.00
2023-03-15T04:40:08.638Z,94579.00
2023-03-15T04:41:08.634Z,94581.00
2023-03-15T04:42:08.670Z,94585.00
2023-03-15T04:45:08.752Z,94579.00
2023-03-15T04:46:08.764Z,94579.00
2023-03-15T04:47:08.900Z,94581.00
2023-03-15T04:48:08.810Z,94579.00
2023-03-15T04:49:08.856Z,94581.00
2023-03-15T04:50:08.892Z,94591.00
2023-03-15T04:51:08.890Z,94589.00
2023-03-15T04:52:08.920Z,94587.00
2023-03-15T04:53:08.951Z,94589.00
2023-03-15T04:54:08.954Z,94591.00
2023-03-15T04:55:09.030Z,94591.00
2023-03-15T04:56:09.065Z,94598.00
2023-03-15T04:57:09.035Z,94600.00
2023-03-15T04:58:09.027Z,94604.00
2023-03-15T05:05:09.172Z,94597.00
2023-03-15T05:06:09.240Z,94606.00
2023-03-15T05:07:09.258Z,94608.00
2023-03-15T05:08:09.283Z,94612.00
2023-03-15T05:09:09.261Z,94614.00
2023-03-15T05:10:09.307Z,94616.00
2023-03-15T05:11:09.267Z,94620.00
2023-03-15T05:12:09.306Z,94622.00
2023-03-15T05:13:09.321Z,94626.00
2023-03-15T05:14:09.313Z,94622.00
2023-03-15T05:15:09.393Z,94628.00
2023-03-15T05:16:09.474Z,94628.00
2023-03-15T05:17:09.426Z,94642.00
2023-03-15T05:18:09.454Z,94638.00
2023-03-15T05:19:09.459Z,94640.00
2023-03-15T05:20:09.517Z,94642.00
2023-03-15T05:21:09.503Z,94643.00
2023-03-15T05:22:09.538Z,94640.00
2023-03-15T05:23:09.538Z,94640.00
2023-03-15T05:24:09.558Z,94642.00
2023-03-15T05:25:09.600Z,94647.00
2023-03-15T05:26:09.612Z,94649.00
2023-03-15T05:27:09.601Z,94651.00
2023-03-15T05:28:09.731Z,94661.00
2023-03-15T05:29:09.677Z,94667.00
2023-03-15T05:30:09.699Z,94673.00
2023-03-15T05:31:09.742Z,94673.00
2023-03-15T05:32:09.790Z,94681.00
2023-03-15T05:33:09.798Z,94681.00
2023-03-15T05:34:09.832Z,94683.00
2023-03-15T05:35:09.852Z,94679.00
2023-03-15T05:36:09.873Z,94679.00
2023-03-15T05:37:09.861Z,94677.00
2023-03-15T05:38:09.901Z,94675.00
2023-03-15T05:39:09.891Z,94679.00
2023-03-15T05:40:09.951Z,94685.00
2023-03-15T05:41:09.958Z,94691.00
2023-03-15T05:42:09.953Z,94695.00
2023-03-15T05:43:10.011Z,94698.00
2023-03-15T05:44:10.010Z,94698.00
2023-03-15T05:45:10.068Z,94700.00
2023-03-15T05:46:10.065Z,94698.00
2023-03-15T05:47:10.090Z,94702.00
2023-03-15T05:48:10.065Z,94702.00
2023-03-15T05:49:10.120Z,94700.00
2023-03-15T05:50:10.142Z,94702.00
2023-03-15T05:51:10.130Z,94704.00
2023-03-15T05:52:10.126Z,94708.00
2023-03-15T05:53:10.181Z,94714.00
2023-03-15T05:54:10.211Z,94714.00
2023-03-15T05:55:10.211Z,94716.00
2023-03-15T05:57:10.258Z,94720.00
2023-03-15T05:58:10.258Z,94726.00
2023-03-15T05:59:10.277Z,94728.00
2023-03-15T06:00:10.338Z,94732.00
2023-03-15T06:01:17.313Z,94730.00
2023-03-15T06:02:10.286Z,94726.00
2023-03-15T06:03:10.360Z,94728.00
2023-03-15T06:04:10.287Z,94732.00
2023-03-15T06:05:10.265Z,94734.00
2023-03-15T06:06:10.205Z,94738.00
2023-03-15T06:07:10.210Z,94742.00
2023-03-15T06:08:10.150Z,94745.00
2023-03-15T06:09:10.124Z,94745.00
2023-03-15T06:10:10.103Z,94749.00
2023-03-15T06:11:10.073Z,94749.00
2023-03-15T06:12:10.068Z,94753.00
2023-03-15T06:13:10.011Z,94753.00
2023-03-15T06:14:09.994Z,94751.00
2023-03-15T06:15:09.993Z,94751.00
2023-03-15T06:16:09.945Z,94757.00
2023-03-15T06:17:09.926Z,94759.00
2023-03-15T06:18:09.848Z,94759.00
2023-03-15T06:19:09.858Z,94763.00
2023-03-15T06:20:09.834Z,94765.00
2023-03-15T06:21:09.811Z,94765.00
2023-03-15T06:22:09.801Z,94771.00
2023-03-15T06:23:09.752Z,94775.00
2023-03-15T06:24:09.777Z,94773.00
2023-03-15T06:25:09.740Z,94777.00
2023-03-15T06:26:09.678Z,94779.00
2023-03-15T06:27:09.666Z,94783.00
2023-03-15T06:28:09.650Z,94785.00
2023-03-15T06:29:09.607Z,94785.00
2023-03-15T06:30:09.597Z,94789.00
2023-03-15T06:31:09.614Z,94792.00
2023-03-15T06:32:09.521Z,94792.00
2023-03-15T06:33:09.507Z,94792.00
2023-03-15T06:34:09.483Z,94798.00
2023-03-15T06:35:09.486Z,94804.00
2023-03-15T06:36:09.679Z,94812.00
2023-03-15T06:37:09.563Z,94816.00
2023-03-15T06:38:11.849Z,94820.00
2023-03-15T06:39:09.558Z,94818.00
2023-03-15T06:40:09.572Z,94818.00
2023-03-15T06:41:09.598Z,94814.00
2023-03-15T06:42:09.550Z,94814.00
2023-03-15T06:43:09.587Z,94812.00
2023-03-15T06:44:09.611Z,94814.00
2023-03-15T06:45:09.578Z,94816.00
2023-03-15T06:46:16.700Z,94820.00
2023-03-15T06:47:09.581Z,94824.00
2023-03-15T06:48:09.540Z,94824.00
2023-03-15T06:50:09.507Z,94832.00
2023-03-15T06:51:09.501Z,94834.00
2023-03-15T06:52:09.440Z,94832.00
2023-03-15T06:53:09.412Z,94832.00
2023-03-15T06:54:09.378Z,94832.00
2023-03-15T06:55:09.379Z,94838.00
2023-03-15T06:56:09.648Z,94841.00
2023-03-15T06:57:09.344Z,94843.00
2023-03-15T06:58:09.299Z,94843.00
2023-03-15T06:59:09.317Z,94845.00
2023-03-15T07:00:09.257Z,94847.00
2023-03-15T07:01:09.256Z,94843.00
2023-03-15T07:02:09.190Z,94841.00
2023-03-15T07:03:09.185Z,94845.00
2023-03-15T07:04:09.142Z,94845.00
2023-03-15T07:05:09.151Z,94847.00
2023-03-15T07:06:09.096Z,94853.00
2023-03-15T07:07:09.059Z,94855.00
2023-03-15T07:08:09.061Z,94867.00
2023-03-15T07:09:09.036Z,94875.00
2023-03-15T07:10:09.072Z,94873.00
2023-03-15T07:11:08.940Z,94877.00
2023-03-15T07:12:08.908Z,94873.00
2023-03-15T07:13:08.900Z,94863.00
2023-03-15T07:14:08.908Z,94869.00
2023-03-15T07:15:08.851Z,94867.00
2023-03-15T07:16:08.881Z,94875.00
2023-03-15T07:17:09.146Z,94877.00
2023-03-15T07:18:08.768Z,94879.00
2023-03-15T07:19:08.731Z,94881.00
2023-03-15T07:20:08.791Z,94892.00
2023-03-15T07:21:08.796Z,94892.00
2023-03-15T07:22:08.788Z,94892.00
2023-03-15T07:23:08.863Z,94896.00
2023-03-15T07:24:08.829Z,94906.00
2023-03-15T07:25:08.804Z,94906.00
2023-03-15T07:26:08.852Z,94906.00
2023-03-15T07:28:08.902Z,94914.00
2023-03-15T07:29:08.956Z,94916.00
2023-03-15T07:30:08.950Z,94916.00
2023-03-15T07:31:08.969Z,94916.00
2023-03-15T07:32:09.012Z,94918.00
2023-03-15T07:33:09.019Z,94920.00
2023-03-15T07:34:09.044Z,94920.00
2023-03-15T07:35:09.838Z,94924.00
2023-03-15T07:36:09.062Z,94928.00
2023-03-15T07:37:09.106Z,94936.00
2023-03-15T07:38:09.067Z,94938.00
2023-03-15T07:39:09.113Z,94934.00
2023-03-15T07:40:09.121Z,94943.00
2023-03-15T07:41:09.164Z,94949.00
2023-03-15T07:42:09.171Z,94941.00
2023-03-15T07:43:09.219Z,94941.00
2023-03-15T07:44:09.212Z,94939.00
2023-03-15T07:45:09.256Z,94928.00
2023-03-15T07:46:09.327Z,94922.00
2023-03-15T07:47:09.302Z,94924.00
2023-03-15T07:48:09.345Z,94930.00
2023-03-15T07:49:09.411Z,94926.00
2023-03-15T07:50:09.461Z,94926.00
2023-03-15T07:51:09.512Z,94918.00
2023-03-15T07:52:09.636Z,94936.00
2023-03-15T07:53:09.567Z,94941.00
2023-03-15T07:54:09.595Z,94938.00
2023-03-15T07:55:09.643Z,94939.00
2023-03-15T07:56:09.633Z,94939.00
2023-03-15T07:57:09.694Z,94943.00
2023-03-15T07:58:09.715Z,94947.00
2023-03-15T07:59:09.824Z,94947.00
2023-03-15T08:00:09.910Z,94949.00
2023-03-15T08:01:09.829Z,94949.00
2023-03-15T08:02:10.013Z,94947.00
2023-03-15T08:03:10.063Z,94943.00
2023-03-15T08:04:10.058Z,94941.00
2023-03-15T08:05:10.110Z,94939.00
2023-03-15T08:06:10.200Z,94939.00
2023-03-15T08:08:10.256Z,94941.00
2023-03-15T08:09:10.321Z,94941.00
2023-03-15T08:10:12.146Z,94945.00
2023-03-15T08:11:10.407Z,94945.00
2023-03-15T08:12:10.516Z,94951.00
2023-03-15T08:13:10.530Z,94953.00
2023-03-15T08:14:10.576Z,94955.00
2023-03-15T08:37:11.445Z,94961.00
2023-03-15T08:38:11.461Z,94963.00
2023-03-15T08:39:11.489Z,94961.00
2023-03-15T08:40:11.502Z,94969.00
2023-03-15T08:41:11.475Z,94965.00
2023-03-15T08:42:11.478Z,94961.00
2023-03-15T08:43:11.666Z,94959.00
2023-03-15T08:44:11.552Z,94963.00
2023-03-15T08:45:11.522Z,94963.00
2023-03-15T08:46:11.550Z,94961.00
2023-03-15T08:47:11.517Z,94961.00
2023-03-15T08:48:11.690Z,94955.00
2023-03-15T08:49:11.493Z,94957.00
2023-03-15T08:50:11.511Z,94957.00
2023-03-15T08:51:11.518Z,94957.00
2023-03-15T08:52:11.515Z,94957.00
2023-03-15T08:53:11.510Z,94955.00
2023-03-15T08:54:11.534Z,94959.00
2023-03-15T08:55:11.530Z,94953.00
2023-03-15T08:56:11.543Z,94953.00
2023-03-15T08:57:11.581Z,94951.00
2023-03-15T08:58:11.724Z,94949.00
2023-03-15T08:59:19.185Z,94947.00
2023-03-15T09:00:12.562Z,94945.00
2023-03-15T09:01:11.575Z,94945.00
2023-03-15T09:02:11.637Z,94943.00
2023-03-15T09:03:11.515Z,94943.00
2023-03-15T09:04:11.613Z,94945.00
2023-03-15T09:05:11.501Z,94943.00
2023-03-15T09:06:11.471Z,94945.00
2023-03-15T09:07:11.517Z,94943.00
2023-03-15T09:08:11.460Z,94941.00
2023-03-15T09:09:11.465Z,94947.00
2023-03-15T09:10:11.431Z,94947.00
2023-03-15T09:11:11.436Z,94947.00
2023-03-15T09:12:11.419Z,94945.00
2023-03-15T09:13:11.416Z,94943.00
2023-03-15T09:14:11.401Z,94941.00
2023-03-15T09:15:11.455Z,94939.00
2023-03-15T09:16:11.481Z,94938.00
2023-03-15T09:17:11.740Z,94936.00
2023-03-15T09:18:12.197Z,94938.00
2023-03-15T09:19:11.809Z,94938.00
2023-03-15T09:20:11.677Z,94934.00
2023-03-15T09:21:11.721Z,94932.00
2023-03-15T09:22:16.590Z,94932.00
2023-03-15T09:23:13.159Z,94932.00
2023-03-15T09:24:11.752Z,94926.00
2023-03-15T09:25:11.719Z,94926.00
2023-03-15T09:26:11.721Z,94926.00
2023-03-15T09:27:11.764Z,94928.00
2023-03-15T09:28:12.188Z,94926.00
2023-03-15T09:29:11.729Z,94926.00
2023-03-15T09:30:11.693Z,94926.00
2023-03-15T09:31:11.804Z,94926.00
2023-03-15T09:32:11.694Z,94928.00
2023-03-15T09:33:12.261Z,94928.00
2023-03-15T09:34:11.710Z,94936.00
2023-03-15T09:35:11.725Z,94934.00
2023-03-15T09:36:11.756Z,94934.00
2023-03-15T09:37:11.802Z,94932.00
2023-03-15T09:38:12.175Z,94938.00
2023-03-15T09:39:11.792Z,94934.00
2023-03-15T09:40:11.840Z,94932.00
2023-03-15T09:41:11.817Z,94932.00
2023-03-15T09:42:11.821Z,94934.00
2023-03-15T09:43:11.835Z,94934.00
2023-03-15T09:44:11.839Z,94930.00
2023-03-15T09:45:11.829Z,94934.00
2023-03-15T09:46:11.973Z,94932.00
2023-03-15T09:47:11.846Z,94930.00
2023-03-15T09:48:11.917Z,94930.00
2023-03-15T09:49:11.916Z,94930.00
2023-03-15T09:50:11.875Z,94934.00
2023-03-15T09:51:11.943Z,94934.00
2023-03-15T09:52:11.924Z,94934.00
2023-03-15T09:53:12.202Z,94934.00
2023-03-15T09:54:11.997Z,94930.00
2023-03-15T09:55:12.007Z,94932.00
2023-03-15T09:56:12.016Z,94928.00
2023-03-15T09:57:11.957Z,94930.00
2023-03-15T09:58:11.990Z,94930.00
2023-03-15T09:59:12.096Z,94928.00
2023-03-15T10:00:12.122Z,94928.00
2023-03-15T10:01:12.167Z,94926.00
2023-03-15T10:02:12.169Z,94926.00
2023-03-15T10:03:12.255Z,94926.00
2023-03-15T10:04:12.743Z,94928.00
2023-03-15T10:05:12.317Z,94924.00
2023-03-15T10:06:12.368Z,94922.00
2023-03-15T10:07:12.407Z,94922.00
2023-03-15T10:08:12.447Z,94922.00
2023-03-15T10:09:12.492Z,94924.00
2023-03-15T10:10:12.535Z,94926.00
2023-03-15T10:11:12.573Z,94920.00
2023-03-15T10:12:12.611Z,94922.00
2023-03-15T10:13:12.702Z,94924.00
2023-03-15T10:14:12.684Z,94924.00
2023-03-15T10:15:12.729Z,94920.00
2023-03-15T10:16:12.802Z,94922.00
2023-03-15T10:17:12.768Z,94920.00
2023-03-15T10:18:12.842Z,94918.00
2023-03-15T10:19:13.219Z,94920.00
2023-03-15T10:20:12.841Z,94926.00
2023-03-15T10:21:12.910Z,94918.00
2023-03-15T10:22:12.921Z,94922.00
2023-03-15T10:23:13.013Z,94924.00
2023-03-15T10:24:13.036Z,94920.00
2023-03-15T10:25:13.068Z,94922.00
2023-03-15T10:26:14.118Z,94920.00
2023-03-15T10:27:13.086Z,94920.00
2023-03-15T10:28:13.159Z,94918.00
2023-03-15T10:29:13.215Z,94918.00
2023-03-15T10:30:13.179Z,94918.00
2023-03-15T10:31:22.252Z,94922.00
2023-03-15T10:32:14.318Z,94920.00
2023-03-15T10:33:13.233Z,94918.00
2023-03-15T10:34:13.216Z,94912.00
2023-03-15T10:35:13.252Z,94918.00
2023-03-15T10:36:13.255Z,94920.00
2023-03-15T10:37:13.228Z,94922.00
2023-03-15T10:38:13.223Z,94920.00
2023-03-15T10:39:14.244Z,94920.00
2023-03-15T10:40:13.226Z,94924.00
2023-03-15T10:41:15.256Z,94922.00
2023-03-15T10:42:13.236Z,94924.00
2023-03-15T10:43:13.270Z,94928.00
2023-03-15T10:44:13.717Z,94930.00
2023-03-15T10:45:13.306Z,94926.00
2023-03-15T10:46:13.389Z,94920.00
2023-03-15T10:47:23.209Z,94920.00
2023-03-15T10:48:14.378Z,94918.00
2023-03-15T10:49:13.717Z,94914.00
2023-03-15T10:50:13.313Z,94916.00
2023-03-15T10:51:13.279Z,94916.00
2023-03-15T10:52:13.282Z,94918.00
2023-03-15T10:53:13.302Z,94914.00
2023-03-15T10:54:13.322Z,94918.00
2023-03-15T10:55:13.275Z,94916.00
2023-03-15T10:56:13.274Z,94916.00
2023-03-15T10:57:13.247Z,94916.00
2023-03-15T10:58:13.298Z,94912.00
2023-03-15T10:59:13.305Z,94912.00
2023-03-15T11:00:13.315Z,94910.00
2023-03-15T11:01:13.369Z,94910.00
2023-03-15T11:02:13.428Z,94914.00
2023-03-15T11:03:13.554Z,94916.00
2023-03-15T11:04:13.540Z,94912.00
2023-03-15T11:05:13.552Z,94906.00
2023-03-15T11:06:13.632Z,94906.00
2023-03-15T11:07:13.676Z,94908.00
2023-03-15T11:08:13.708Z,94906.00
2023-03-15T11:09:13.717Z,94906.00
2023-03-15T11:10:13.903Z,94904.00
2023-03-15T11:11:13.790Z,94904.00
2023-03-15T11:12:13.840Z,94910.00
2023-03-15T11:13:13.922Z,94908.00
2023-03-15T11:14:13.974Z,94906.00
2023-03-15T11:15:14.091Z,94904.00
2023-03-15T11:16:14.082Z,94900.00
2023-03-15T11:17:14.070Z,94900.00
2023-03-15T11:18:14.120Z,94900.00
2023-03-15T11:19:14.204Z,94896.00
2023-03-15T11:20:14.254Z,94902.00
2023-03-15T11:21:15.301Z,94900.00
2023-03-15T11:22:14.319Z,94900.00
2023-03-15T11:23:14.388Z,94900.00
2023-03-15T11:24:14.767Z,94900.00
2023-03-15T11:25:14.515Z,94902.00
2023-03-15T11:26:29.359Z,94896.00
2023-03-15T11:27:15.510Z,94894.00
2023-03-15T11:28:14.506Z,94898.00
2023-03-15T11:29:14.536Z,94902.00
2023-03-15T11:30:14.543Z,94900.00
2023-03-15T11:31:14.588Z,94902.00
2023-03-15T11:32:14.488Z,94900.00
2023-03-15T11:33:14.505Z,94900.00
2023-03-15T11:34:14.741Z,94902.00
2023-03-15T11:35:15.827Z,94902.00
2023-03-15T11:36:14.533Z,94900.00
2023-03-15T11:37:14.754Z,94896.00
2023-03-15T11:38:15.722Z,94898.00
2023-03-15T11:39:14.760Z,94902.00
2023-03-15T11:40:17.100Z,94904.00
2023-03-15T11:41:14.933Z,94902.00
2023-03-15T11:42:14.982Z,94900.00
2023-03-15T11:43:15.050Z,94904.00
2023-03-15T11:44:15.083Z,94906.00
2023-03-15T14:35:22.276Z,94885.00
2023-03-15T14:37:21.702Z,94877.00
2023-03-15T14:38:21.727Z,94879.00
2023-03-15T14:39:21.780Z,94881.00
2023-03-15T14:40:21.810Z,94881.00
2023-03-15T14:41:21.835Z,94902.00
2023-03-15T14:42:21.840Z,94908.00
2023-03-15T14:43:21.917Z,94908.00
2023-03-15T14:44:21.892Z,94910.00
2023-03-15T14:45:21.936Z,94902.00
2023-03-15T14:46:21.972Z,94902.00
2023-03-15T14:47:22.006Z,94904.00
2023-03-15T14:48:22.009Z,94904.00
2023-03-15T14:49:22.059Z,94898.00
2023-03-15T14:50:22.020Z,94902.00
2023-03-15T14:51:22.063Z,94904.00
2023-03-15T14:52:22.031Z,94906.00
2023-03-15T14:53:22.071Z,94900.00
2023-03-15T14:54:22.083Z,94904.00
2023-03-15T14:55:22.098Z,94910.00
2023-03-15T14:56:22.112Z,94912.00
2023-03-15T14:57:22.084Z,94910.00
2023-03-15T14:58:22.072Z,94912.00
2023-03-15T14:59:22.099Z,94912.00
2023-03-15T15:00:22.125Z,94912.00
2023-03-15T15:01:22.100Z,94914.00
2023-03-15T15:02:22.188Z,94912.00
2023-03-15T15:03:22.092Z,94906.00
2023-03-15T15:04:22.109Z,94910.00
2023-03-15T15:05:22.154Z,94912.00
2023-03-15T15:06:22.109Z,94908.00
2023-03-15T15:07:22.137Z,94916.00
2023-03-15T15:08:22.208Z,94916.00
2023-03-15T15:09:22.179Z,94920.00
2023-03-15T15:10:22.153Z,94924.00
2023-03-15T15:11:22.167Z,94920.00
2023-03-15T15:12:22.199Z,94916.00
2023-03-15T15:13:22.205Z,94918.00
2023-03-15T15:14:22.212Z,94920.00
2023-03-15T15:15:22.187Z,94916.00
2023-03-15T15:16:22.282Z,94918.00
2023-03-15T15:17:22.202Z,94912.00
2023-03-15T15:18:22.237Z,94920.00
2023-03-15T15:19:22.308Z,94914.00
2023-03-15T15:20:22.282Z,94920.00
2023-03-15T15:21:22.304Z,94920.00
2023-03-15T15:22:22.287Z,94922.00
2023-03-15T15:23:22.307Z,94924.00
2023-03-15T15:24:22.343Z,94924.00
2023-03-15T15:25:22.353Z,94926.00
2023-03-15T15:26:22.392Z,94922.00
2023-03-15T15:27:22.371Z,94920.00
2023-03-15T15:28:34.186Z,94918.00
2023-03-15T15:29:23.383Z,94924.00
2023-03-15T15:30:22.351Z,94920.00
2023-03-15T15:31:22.383Z,94924.00
2023-03-15T15:32:22.385Z,94928.00
2023-03-15T15:33:22.309Z,94936.00
2023-03-15T15:34:22.303Z,94924.00
2023-03-15T15:35:22.302Z,94922.00